Time;durP1;ratioP1;P1;durP2;ratioP2;P2;SDS_P1;SDS_P2;PMS_P1;PMS_P2;Temp;Humidity;BMP_temperature;BMP_pressure;BME280_temperature;BME280_humidity;BME280_pressure;Samples;Min_cycle;Max_cycle;Signal;HPM_P1;HPM_P2
2022/11/22 00:00:26;;;;;;;65.30;35.90;;;;;;;0.41;83.95;99143.52;99518;1300;97956;-66
2022/11/22 00:03:14;;;;;;;64.80;35.30;;;;;;;0.41;83.98;99146.77;100041;1299;111402;-66
2022/11/22 00:05:41;;;;;;;65.90;34.60;;;;;;;0.41;84.05;99147.45;99584;1299;107272;-68
2022/11/22 00:08:09;;;;;;;60.90;32.90;;;;;;;0.41;84.10;99148.14;99484;1292;138150;-67
2022/11/22 00:10:36;;;;;;;65.30;34.10;;;;;;;0.41;84.28;99147.27;99835;1300;107545;-67
2022/11/22 00:13:04;;;;;;;62.10;33.30;;;;;;;0.39;84.23;99146.95;99545;1299;138310;-67
2022/11/22 00:15:32;;;;;;;63.90;34.60;;;;;;;0.40;84.14;99145.24;99547;1299;112014;-67
2022/11/22 00:18:00;;;;;;;64.10;32.70;;;;;;;0.41;84.25;99140.11;99607;1292;108326;-67
2022/11/22 00:20:28;;;;;;;58.60;32.00;;;;;;;0.43;84.21;99145.72;99479;1296;139867;-67
2022/11/22 00:22:56;;;;;;;62.80;33.60;;;;;;;0.45;84.15;99146.21;99507;1300;107524;-68
2022/11/22 00:25:23;;;;;;;59.80;31.90;;;;;;;0.47;84.10;99149.44;99463;1298;138982;-67
2022/11/22 00:27:51;;;;;;;66.50;32.30;;;;;;;0.48;84.05;99155.59;99633;1291;110457;-67
2022/11/22 00:30:19;;;;;;;61.70;32.00;;;;;;;0.47;84.02;99146.70;99578;1299;108053;-68
2022/11/22 00:32:46;;;;;;;61.60;33.80;;;;;;;0.48;84.08;99145.49;99494;1297;139849;-68
2022/11/22 00:35:14;;;;;;;62.10;32.20;;;;;;;0.48;84.09;99144.46;99614;1299;107774;-67
2022/11/22 00:37:41;;;;;;;63.50;33.90;;;;;;;0.48;83.95;99149.43;99459;1299;139367;-67
2022/11/22 00:40:10;;;;;;;59.00;32.30;;;;;;;0.48;84.03;99151.99;99707;1298;111528;-67
2022/11/22 00:42:37;;;;;;;59.90;32.70;;;;;;;0.48;84.06;99152.86;99853;1297;108556;-67
2022/11/22 00:45:06;;;;;;;62.90;34.30;;;;;;;0.46;83.99;99149.11;99489;1298;138526;-67
2022/11/22 00:47:33;;;;;;;62.90;34.10;;;;;;;0.45;84.13;99148.95;99778;1298;107795;-69
2022/11/22 00:50:01;;;;;;;61.00;33.40;;;;;;;0.44;84.16;99149.14;99906;1304;139561;-68
2022/11/22 00:52:28;;;;;;;67.80;34.00;;;;;;;0.43;84.27;99150.35;99522;1299;111709;-67
2022/11/22 00:54:55;;;;;;;60.50;33.90;;;;;;;0.42;84.21;99146.24;99445;1299;142095;-67
2022/11/22 00:57:22;;;;;;;62.40;34.50;;;;;;;0.42;84.20;99147.96;99804;1298;98608;-67
2022/11/22 00:59:50;;;;;;;62.30;33.70;;;;;;;0.42;84.27;99144.88;99567;1298;107822;-67
2022/11/22 01:02:18;;;;;;;61.60;33.40;;;;;;;0.42;84.20;99146.77;99512;1299;138262;-67
2022/11/22 01:04:46;;;;;;;64.90;35.00;;;;;;;0.42;84.24;99146.42;99574;1291;111171;-67
2022/11/22 01:07:13;;;;;;;62.60;33.90;;;;;;;0.41;84.36;99150.52;99320;1299;138396;-68
2022/11/22 01:09:41;;;;;;;63.30;34.30;;;;;;;0.42;84.27;99146.41;99578;1294;98380;-67
2022/11/22 01:12:09;;;;;;;64.00;32.90;;;;;;;0.43;84.35;99144.52;99542;1296;107325;-66
2022/11/22 01:14:36;;;;;;;70.70;35.10;;;;;;;0.44;84.34;99146.91;99527;1299;138283;-67
2022/11/22 01:17:03;;;;;;;64.80;33.50;;;;;;;0.42;84.51;99147.44;99525;1296;112055;-67
2022/11/22 01:19:31;;;;;;;66.50;34.30;;;;;;;0.42;84.40;99153.77;99442;1298;138085;-66
2022/11/22 01:21:58;;;;;;;68.90;35.30;;;;;;;0.42;84.44;99158.56;99528;1291;98645;-66
2022/11/22 01:24:26;;;;;;;68.00;34.70;;;;;;;0.42;84.57;99157.02;99529;1292;107484;-66
2022/11/22 01:26:53;;;;;;;65.50;33.60;;;;;;;0.40;84.57;99154.98;99690;1299;138473;-67
2022/11/22 01:29:21;;;;;;;69.00;34.80;;;;;;;0.41;84.45;99149.67;99503;1298;111545;-66
2022/11/22 01:31:48;;;;;;;64.70;34.00;;;;;;;0.40;84.57;99149.18;99395;1299;138315;-66
2022/11/22 01:34:15;;;;;;;60.50;32.80;;;;;;;0.41;84.46;99143.17;99722;1298;97858;-66
2022/11/22 01:36:43;;;;;;;67.10;34.90;;;;;;;0.42;84.58;99140.60;99531;1298;106732;-66
2022/11/22 01:39:10;;;;;;;73.10;36.70;;;;;;;0.44;84.45;99139.21;99599;1298;97856;-66
2022/11/22 01:41:37;;;;;;;72.20;34.90;;;;;;;0.46;84.54;99138.84;99602;1291;111350;-66
2022/11/22 01:44:19;;;;;;;65.70;34.20;;;;;;;0.48;84.42;99140.88;99538;1305;140419;-66
2022/11/22 01:46:48;;;;;;;71.20;33.90;;;;;;;0.50;84.56;99142.91;100181;1299;98836;-67
2022/11/22 01:49:23;;;;;;;73.40;34.50;;;;;;;0.51;84.44;99141.52;99646;1298;138393;-67
2022/11/22 01:51:55;;;;;;;66.70;34.80;;;;;;;0.52;84.43;99143.73;99576;1293;97871;-66
2022/11/22 01:54:25;;;;;;;66.70;33.90;;;;;;;0.54;84.40;99144.93;99650;1292;111655;-67
2022/11/22 01:56:58;;;;;;;65.20;33.90;;;;;;;0.57;84.37;99146.29;99535;1299;138507;-67
2022/11/22 01:59:28;;;;;;;71.10;35.30;;;;;;;0.62;84.42;99149.13;99625;1292;97857;-67
2022/11/22 02:01:57;;;;;;;65.90;34.40;;;;;;;0.67;84.44;99154.89;99443;1298;138017;-67
2022/11/22 02:04:28;;;;;;;75.50;34.90;;;;;;;0.72;84.29;99161.87;99717;1299;97998;-67
2022/11/22 02:07:01;;;;;;;74.10;36.10;;;;;;;0.74;84.20;99168.02;99476;1298;139666;-67
2022/11/22 02:09:29;;;;;;;70.30;36.60;;;;;;;0.76;84.13;99170.05;99471;1299;107845;-67
2022/11/22 02:12:02;;;;;;;68.90;35.50;;;;;;;0.77;83.95;99173.13;99724;1298;98376;-66
2022/11/22 02:14:31;;;;;;;71.40;36.20;;;;;;;0.79;83.98;99175.66;99644;1299;138113;-69
2022/11/22 02:16:58;;;;;;;71.90;36.50;;;;;;;0.81;83.94;99177.17;99717;1299;97851;-66
2022/11/22 02:19:39;;;;;;;71.10;36.10;;;;;;;0.82;83.87;99176.65;99492;1298;139081;-66
2022/11/22 02:22:18;;;;;;;74.30;36.30;;;;;;;0.83;83.84;99178.87;99673;1300;106749;-66
2022/11/22 02:24:53;;;;;;;80.70;36.90;;;;;;;0.80;83.77;99179.59;99762;1299;98337;-66
2022/11/22 02:27:21;;;;;;;78.40;34.70;;;;;;;0.77;83.62;99183.21;99655;1297;108587;-66
2022/11/22 02:29:48;;;;;;;69.90;35.50;;;;;;;0.76;83.77;99184.42;99345;1293;97928;-66
2022/11/22 02:32:15;;;;;;;76.40;38.10;;;;;;;0.75;83.69;99182.89;99393;1296;138014;-66
2022/11/22 02:34:50;;;;;;;77.20;36.20;;;;;;;0.76;83.93;99181.52;99521;1297;107229;-66
2022/11/22 02:37:22;;;;;;;66.80;34.50;;;;;;;0.76;83.78;99186.13;99426;1300;138430;-66
2022/11/22 02:39:56;;;;;;;79.20;37.50;;;;;;;0.77;83.83;99192.97;99585;1300;107653;-66
2022/11/22 02:42:24;;;;;;;73.50;36.50;;;;;;;0.76;83.87;99192.81;99583;1291;97866;-66
2022/11/22 02:44:52;;;;;;;80.50;38.20;;;;;;;0.74;83.66;99198.98;99477;1292;140005;-66
2022/11/22 02:47:19;;;;;;;74.50;35.50;;;;;;;0.70;83.69;99196.43;99531;1291;108471;-66
2022/11/22 02:49:47;;;;;;;76.60;36.80;;;;;;;0.67;83.71;99195.27;99490;1297;138380;-66
2022/11/22 02:52:18;;;;;;;79.10;37.20;;;;;;;0.65;83.78;99193.91;99588;1296;108080;-69
2022/11/22 02:54:45;;;;;;;79.90;34.90;;;;;;;0.63;83.91;99191.55;99645;1299;97852;-66
2022/11/22 02:57:13;;;;;;;83.10;38.10;;;;;;;0.62;83.94;99188.31;99644;1299;111041;-67
2022/11/22 02:59:41;;;;;;;78.10;36.70;;;;;;;0.61;83.95;99191.58;99603;1299;108046;-66
2022/11/22 03:02:08;;;;;;;81.80;39.00;;;;;;;0.61;83.99;99189.00;99513;1299;138391;-67
2022/11/22 03:04:36;;;;;;;77.30;37.30;;;;;;;0.61;84.10;99185.23;99592;1298;107553;-66
2022/11/22 03:07:03;;;;;;;76.00;37.80;;;;;;;0.61;84.09;99183.02;99464;1299;138321;-66
2022/11/22 03:09:32;;;;;;;77.10;37.30;;;;;;;0.62;84.09;99179.77;99628;1298;112315;-66
2022/11/22 03:12:00;;;;;;;73.70;36.70;;;;;;;0.61;84.03;99180.96;99650;1283;108192;-67
2022/11/22 03:14:28;;;;;;;79.20;37.90;;;;;;;0.62;83.96;99182.15;99505;1299;141591;-67
2022/11/22 03:16:55;;;;;;;74.80;37.10;;;;;;;0.63;84.19;99187.63;99601;1297;107947;-67
2022/11/22 03:19:22;;;;;;;84.90;37.30;;;;;;;0.60;84.22;99185.93;99436;1301;138333;-67
2022/11/22 03:21:50;;;;;;;78.10;37.20;;;;;;;0.59;84.23;99183.20;99604;1292;111403;-67
2022/11/22 03:24:18;;;;;;;71.10;35.50;;;;;;;0.57;84.15;99183.57;99523;1298;107754;-66
2022/11/22 03:26:50;;;;;;;78.90;37.70;;;;;;;0.56;84.21;99182.72;99592;1293;138227;-67
2022/11/22 03:29:18;;;;;;;78.60;37.60;;;;;;;0.55;84.37;99177.44;99599;1301;108418;-67
2022/11/22 03:31:45;;;;;;;78.60;36.70;;;;;;;0.55;84.37;99177.09;99478;1290;140115;-67
2022/11/22 03:34:15;;;;;;;83.40;36.60;;;;;;;0.54;84.47;99176.59;99549;1298;112198;-67
2022/11/22 03:36:42;;;;;;;77.00;35.50;;;;;;;0.56;84.60;99178.62;99636;1299;107353;-68
2022/11/22 03:39:10;;;;;;;79.60;38.60;;;;;;;0.58;84.66;99177.57;99435;1299;137752;-66
2022/11/22 03:41:37;;;;;;;82.30;38.10;;;;;;;0.64;84.69;99179.91;99622;1292;110660;-66
2022/11/22 03:44:05;;;;;;;82.00;39.70;;;;;;;0.67;84.66;99180.73;99532;1305;138796;-66
2022/11/22 03:46:33;;;;;;;90.30;41.10;;;;;;;0.68;84.54;99176.27;99807;1299;111924;-66
2022/11/22 03:49:00;;;;;;;90.60;40.40;;;;;;;0.65;84.47;99176.81;99382;1292;138426;-67
2022/11/22 03:51:28;;;;;;;87.90;38.60;;;;;;;0.60;84.48;99174.47;99762;1305;97840;-66
2022/11/22 03:53:55;;;;;;;87.10;38.40;;;;;;;0.58;84.65;99178.94;99571;1299;107441;-66
2022/11/22 03:56:23;;;;;;;83.40;38.20;;;;;;;0.61;84.77;99179.42;99468;1302;138372;-66
2022/11/22 03:58:50;;;;;;;79.50;36.90;;;;;;;0.61;84.72;99176.52;99646;1299;111661;-66
2022/11/22 04:01:17;;;;;;;79.30;36.80;;;;;;;0.64;84.71;99177.17;99466;1298;138570;-68
2022/11/22 04:03:45;;;;;;;83.00;38.10;;;;;;;0.68;84.90;99177.98;99701;1302;97841;-67
2022/11/22 04:06:12;;;;;;;91.50;37.70;;;;;;;0.72;84.85;99180.17;99572;1289;108035;-67
2022/11/22 04:08:40;;;;;;;86.50;39.50;;;;;;;0.75;84.83;99187.17;99497;1299;139118;-67
2022/11/22 04:11:07;;;;;;;96.50;39.40;;;;;;;0.74;84.75;99189.41;100132;1292;111059;-67
2022/11/22 04:16:20;;;;;;;85.90;37.40;;;;;;;0.74;84.91;99178.62;99658;1299;97825;-67
2022/11/22 04:18:48;;;;;;;91.70;37.10;;;;;;;0.75;84.89;99172.29;99551;1299;106890;-67
2022/11/22 04:21:34;;;;;;;82.80;36.80;;;;;;;0.75;84.84;99173.49;99682;1300;97715;-67
2022/11/22 04:26:47;;;;;;;78.10;35.00;;;;;;;0.79;84.89;99165.39;99801;1299;138396;-67
2022/11/22 04:29:15;;;;;;;80.70;36.20;;;;;;;0.85;84.92;99162.23;99607;1300;97811;-67
2022/11/22 04:34:40;;;;;;;78.10;36.80;;;;;;;0.90;84.57;99162.38;99088;1302;98055;-67
2022/11/22 04:37:07;;;;;;;83.20;36.50;;;;;;;0.85;84.55;99160.02;98834;1303;137714;-67
2022/11/22 04:39:35;;;;;;;78.90;35.60;;;;;;;0.81;84.52;99158.02;98975;1304;107784;-67
2022/11/22 04:44:47;;;;;;;81.30;35.90;;;;;;;0.75;84.58;99157.23;98709;1305;139682;-67
2022/11/22 04:50:00;;;;;;;82.10;36.20;;;;;;;0.79;84.95;99148.45;98875;1311;138277;-66
2022/11/22 04:55:12;;;;;;;88.00;38.10;;;;;;;0.80;84.89;99155.11;98794;1306;137591;-66
2022/11/22 04:57:39;;;;;;;81.80;35.60;;;;;;;0.79;84.77;99158.55;98917;1306;107354;-68
2022/11/22 05:00:09;;;;;;;85.80;38.80;;;;;;;0.77;84.82;99159.77;98738;1299;97821;-69
2022/11/22 05:02:36;;;;;;;97.30;42.70;;;;;;;0.77;84.87;99163.54;98870;1300;139301;-68
2022/11/22 05:05:04;;;;;;;87.20;39.00;;;;;;;0.75;84.90;99168.69;98798;1306;108071;-68
2022/11/22 05:07:33;;;;;;;99.60;41.60;;;;;;;0.71;85.07;99168.53;98770;1306;138317;-68
2022/11/22 05:10:00;;;;;;;94.70;40.70;;;;;;;0.66;84.93;99171.51;99052;1303;107463;-68
2022/11/22 05:12:28;;;;;;;102.30;42.20;;;;;;;0.63;85.08;99177.88;99272;1302;97998;-68
2022/11/22 05:14:55;;;;;;;100.00;40.80;;;;;;;0.60;85.16;99177.89;99082;1302;138106;-68
2022/11/22 05:17:23;;;;;;;94.90;39.80;;;;;;;0.59;85.31;99178.41;99197;1303;107840;-68
2022/11/22 05:19:50;;;;;;;90.60;39.60;;;;;;;0.58;85.49;99180.65;99167;1295;138177;-68
2022/11/22 05:23:52;;;;;;;102.70;41.90;;;;;;;0.54;85.39;99181.88;99249;1301;107360;-68
2022/11/22 05:25:06;;;;;;;95.70;40.70;;;;;;;0.52;85.46;99183.08;99485;1299;138491;-68
2022/11/22 05:27:33;;;;;;;94.50;41.00;;;;;;;0.52;85.52;99184.27;99948;1298;110305;-68
2022/11/22 05:30:01;;;;;;;97.40;39.80;;;;;;;0.52;85.55;99188.03;99625;1299;108832;-66
2022/11/22 05:32:31;;;;;;;98.40;39.30;;;;;;;0.55;85.68;99185.98;99563;1301;138105;-68
2022/11/22 05:34:58;;;;;;;100.60;41.80;;;;;;;0.58;85.80;99183.56;100052;1296;105648;-68
2022/11/22 05:37:26;;;;;;;95.80;39.50;;;;;;;0.60;85.72;99188.84;99492;1299;138783;-68
2022/11/22 05:39:53;;;;;;;95.80;37.70;;;;;;;0.63;85.64;99197.36;99696;1292;111202;-68
2022/11/22 05:42:21;;;;;;;90.90;38.40;;;;;;;0.66;85.78;99199.39;99555;1298;109396;-66
2022/11/22 05:44:48;;;;;;;103.40;42.10;;;;;;;0.69;85.70;99208.08;99546;1292;138841;-66
2022/11/22 05:47:16;;;;;;;93.60;40.60;;;;;;;0.71;85.52;99214.05;99600;1299;107992;-66
2022/11/22 05:49:44;;;;;;;104.70;43.30;;;;;;;0.71;85.52;99212.84;99502;1302;137584;-66
2022/11/22 05:52:12;;;;;;;99.60;42.90;;;;;;;0.73;85.67;99217.98;99777;1292;111196;-66
2022/11/22 05:54:39;;;;;;;94.60;39.40;;;;;;;0.74;85.55;99223.45;99598;1300;109935;-67
2022/11/22 05:57:07;;;;;;;99.50;39.50;;;;;;;0.71;85.41;99232.52;99464;1296;138001;-67
2022/11/22 05:59:34;;;;;;;95.50;39.40;;;;;;;0.68;85.45;99231.86;99626;1300;108502;-67
2022/11/22 06:02:10;;;;;;;95.60;39.90;;;;;;;0.67;85.47;99230.69;99353;1298;138413;-66
2022/11/22 06:04:37;;;;;;;91.80;38.70;;;;;;;0.66;85.63;99229.83;99363;1299;112262;-67
2022/11/22 06:07:05;;;;;;;89.70;38.80;;;;;;;0.64;85.67;99231.40;99406;1299;138738;-66
2022/11/22 06:09:36;;;;;;;95.10;39.70;;;;;;;0.62;85.65;99235.69;99490;1306;97830;-65
2022/11/22 06:12:04;;;;;;;107.40;41.90;;;;;;;0.62;85.68;99235.52;99420;1306;107886;-66
2022/11/22 06:14:31;;;;;;;101.80;39.90;;;;;;;0.63;85.90;99236.20;100749;1304;138623;-66
2022/11/22 06:16:58;;;;;;;91.50;38.10;;;;;;;0.66;85.85;99236.17;100896;1295;110655;-66
2022/11/22 06:19:26;;;;;;;105.40;40.90;;;;;;;0.68;85.86;99236.83;99890;1298;138627;-66
2022/11/22 06:21:53;;;;;;;96.00;40.10;;;;;;;0.70;85.85;99242.63;99656;1302;97829;-66
2022/11/22 06:24:21;;;;;;;101.00;39.80;;;;;;;0.74;85.96;99246.55;99565;1297;107077;-65
2022/11/22 06:26:48;;;;;;;97.00;41.90;;;;;;;0.77;85.90;99243.61;99517;1299;138001;-65
2022/11/22 06:29:16;;;;;;;98.20;41.10;;;;;;;0.75;85.75;99247.05;99666;1297;112333;-65
2022/11/22 06:31:43;;;;;;;109.40;41.50;;;;;;;0.74;85.66;99247.41;99474;1297;137436;-65
2022/11/22 06:34:13;;;;;;;109.30;43.10;;;;;;;0.75;85.86;99240.39;99515;1299;98464;-66
2022/11/22 06:36:40;;;;;;;105.30;40.70;;;;;;;0.74;85.95;99240.73;99684;1298;107000;-66
2022/11/22 06:39:07;;;;;;;104.40;42.40;;;;;;;0.76;86.06;99246.37;99476;1298;139575;-66
2022/11/22 06:41:37;;;;;;;95.80;39.60;;;;;;;0.75;85.94;99243.46;99569;1299;112251;-67
2022/11/22 06:44:08;;;;;;;101.30;41.20;;;;;;;0.75;86.05;99242.09;99439;1298;138186;-66
2022/11/22 06:46:36;;;;;;;107.80;41.00;;;;;;;0.75;85.96;99244.66;99836;1297;97829;-67
2022/11/22 06:49:04;;;;;;;97.00;39.60;;;;;;;0.77;86.13;99242.41;99428;1292;138330;-67
2022/11/22 06:51:32;;;;;;;95.30;38.00;;;;;;;0.80;86.25;99245.46;99556;1299;97895;-66
2022/11/22 06:54:00;;;;;;;98.70;39.10;;;;;;;0.83;86.22;99251.24;99477;1305;111658;-67
2022/11/22 06:56:29;;;;;;;98.40;39.60;;;;;;;0.87;86.21;99247.45;98685;1301;1003799;-66
2022/11/22 06:58:58;;;;;;;93.90;42.50;;;;;;;0.92;86.27;99252.21;99575;1299;97924;-68
2022/11/22 07:01:28;;;;;;;91.30;37.10;;;;;;;0.97;86.23;99254.72;99498;1302;137486;-68
2022/11/22 07:03:57;;;;;;;91.40;37.80;;;;;;;0.99;86.33;99258.98;99506;1299;97948;-68
2022/11/22 07:06:26;;;;;;;102.70;41.10;;;;;;;1.08;87.49;99257.17;99514;1305;313894;-72
2022/11/22 07:08:54;;;;;;;105.40;40.20;;;;;;;1.14;87.08;99263.29;99854;1302;138410;-66
2022/11/22 07:11:23;;;;;;;103.20;38.90;;;;;;;1.14;86.46;99269.27;99579;1309;98385;-69
2022/11/22 07:13:52;;;;;;;110.20;41.70;;;;;;;1.15;86.36;99271.67;99377;1300;138212;-67
2022/11/22 07:16:21;;;;;;;113.10;42.60;;;;;;;1.13;86.10;99270.66;99509;1298;98118;-67
2022/11/22 07:18:49;;;;;;;111.90;41.70;;;;;;;1.11;85.92;99271.55;99677;1298;110525;-66
2022/11/22 07:21:18;;;;;;;106.20;41.10;;;;;;;1.11;85.97;99269.65;99588;1308;107615;-67
2022/11/22 07:23:47;;;;;;;106.40;42.10;;;;;;;1.12;85.89;99271.54;99466;1298;97919;-67
2022/11/22 07:26:16;;;;;;;114.20;42.90;;;;;;;1.14;85.98;99267.39;99443;1299;138152;-67
2022/11/22 07:28:44;;;;;;;124.40;44.00;;;;;;;1.15;86.03;99266.86;99470;1299;97879;-66
2022/11/22 07:31:13;;;;;;;131.70;46.80;;;;;;;1.13;85.83;99264.67;99412;1299;138496;-66
2022/11/22 07:33:42;;;;;;;131.00;45.90;;;;;;;1.11;85.69;99265.03;99411;1300;107674;-68
2022/11/22 07:36:14;;;;;;;135.20;47.20;;;;;;;1.07;85.78;99263.00;100765;1307;96231;-67
2022/11/22 07:38:41;;;;;;;136.40;45.70;;;;;;;1.03;85.73;99265.77;100672;1302;138168;-66
2022/11/22 07:41:09;;;;;;;131.50;45.40;;;;;;;1.00;85.87;99268.89;100799;1297;95862;-66
2022/11/22 07:43:37;;;;;;;125.80;45.20;;;;;;;0.96;85.81;99270.30;99717;1293;138394;-66
2022/11/22 07:46:07;;;;;;;124.20;43.80;;;;;;;0.92;85.81;99269.67;99518;1297;108515;-66
2022/11/22 07:48:35;;;;;;;129.20;46.00;;;;;;;0.91;85.97;99269.16;100799;1300;96906;-67
2022/11/22 07:51:07;;;;;;;123.30;45.50;;;;;;;0.91;86.10;99269.67;100658;1294;138371;-66
2022/11/22 07:53:34;;;;;;;118.00;45.30;;;;;;;0.89;86.09;99272.75;100832;1292;95907;-67
2022/11/22 07:56:04;;;;;;;123.40;43.50;;;;;;;0.91;86.11;99275.84;99876;1298;138457;-66
2022/11/22 07:58:32;;;;;;;119.50;44.50;;;;;;;0.98;86.12;99279.02;100774;1295;107458;-66
2022/11/22 08:01:03;;;;;;;131.80;45.60;;;;;;;1.04;86.32;99278.78;100721;1303;138854;-67
2022/11/22 08:03:31;;;;;;;123.00;44.80;;;;;;;1.10;86.22;99285.25;100771;1304;107721;-67
2022/11/22 08:06:02;;;;;;;126.90;45.70;;;;;;;1.16;86.29;99294.94;100853;1300;96788;-67
2022/11/22 08:08:30;;;;;;;133.60;44.70;;;;;;;1.22;86.03;99296.92;100682;1301;138814;-66
2022/11/22 08:10:57;;;;;;;134.50;46.40;;;;;;;1.25;85.76;99299.98;100784;1292;107916;-67
2022/11/22 08:13:25;;;;;;;123.80;46.10;;;;;;;1.25;85.56;99296.39;100699;1303;139095;-67
2022/11/22 08:15:53;;;;;;;125.30;45.50;;;;;;;1.26;85.59;99290.90;100710;1292;107857;-66
2022/11/22 08:18:24;;;;;;;133.70;46.20;;;;;;;1.26;85.53;99292.96;100383;1299;97309;-66
2022/11/22 08:21:01;;;;;;;123.00;45.30;;;;;;;1.24;85.38;99293.99;99461;1292;139411;-66
2022/11/22 08:23:28;;;;;;;128.00;43.80;;;;;;;1.23;85.46;99295.04;99589;1298;107385;-67
2022/11/22 08:25:57;;;;;;;124.00;42.80;;;;;;;1.24;85.38;99297.08;99530;1299;138363;-68
2022/11/22 08:28:24;;;;;;;122.90;45.50;;;;;;;1.27;85.56;99291.41;99552;1293;106436;-68
2022/11/22 08:30:52;;;;;;;119.20;44.10;;;;;;;1.30;85.56;99291.56;99578;1297;97940;-68
2022/11/22 08:33:19;;;;;;;119.30;45.60;;;;;;;1.32;85.39;99295.98;99619;1288;110346;-68
2022/11/22 08:35:51;;;;;;;136.60;48.10;;;;;;;1.33;85.38;99297.52;99615;1298;107566;-68
2022/11/22 08:38:18;;;;;;;117.50;44.90;;;;;;;1.33;85.28;99296.32;99784;1299;137639;-66
2022/11/22 08:40:46;;;;;;;125.70;44.70;;;;;;;1.31;85.31;99302.67;99625;1300;108233;-68
2022/11/22 08:43:13;;;;;;;130.70;45.40;;;;;;;1.30;85.35;99303.73;99525;1297;139177;-69
2022/11/22 08:45:40;;;;;;;117.50;43.00;;;;;;;1.28;85.28;99299.80;99757;1298;111954;-67
2022/11/22 08:48:09;;;;;;;132.40;44.70;;;;;;;1.26;85.45;99302.89;99591;1299;108961;-67
2022/11/22 08:50:36;;;;;;;116.90;43.10;;;;;;;1.25;85.33;99299.80;99937;1295;138342;-67
2022/11/22 08:53:03;;;;;;;131.00;45.60;;;;;;;1.27;85.62;99298.78;99475;1299;107778;-67
2022/11/22 08:55:32;;;;;;;128.30;45.40;;;;;;;1.31;85.62;99296.52;99427;1299;138690;-67
2022/11/22 08:58:01;;;;;;;110.20;41.20;;;;;;;1.36;85.69;99297.66;99481;1297;111902;-69
2022/11/22 09:00:30;;;;;;;115.00;43.50;;;;;;;1.43;85.72;99301.00;99510;1298;107281;-66
2022/11/22 09:03:00;;;;;;;120.50;44.80;;;;;;;1.47;85.51;99298.23;99725;1302;137750;-66
2022/11/22 09:05:27;;;;;;;122.40;46.00;;;;;;;1.51;85.28;99302.45;99506;1298;108304;-67
2022/11/22 09:07:55;;;;;;;120.40;43.40;;;;;;;1.51;85.23;99302.30;99418;1299;138016;-66
2022/11/22 09:10:44;;;;;;;126.30;45.20;;;;;;;1.55;85.35;99304.47;99488;1301;111421;-67
2022/11/22 09:13:11;;;;;;;122.50;43.10;;;;;;;1.57;85.25;99305.48;99470;1304;138654;-67
2022/11/22 09:15:39;;;;;;;119.20;44.50;;;;;;;1.58;85.23;99303.92;99613;1295;99473;-66
2022/11/22 09:18:06;;;;;;;119.70;41.70;;;;;;;1.59;85.19;99307.16;99515;1299;109548;-66
2022/11/22 09:20:34;;;;;;;115.50;40.60;;;;;;;1.63;85.17;99306.63;99576;1299;139762;-66
2022/11/22 09:23:03;;;;;;;127.00;45.30;;;;;;;1.70;85.36;99311.51;99660;1301;110888;-66
2022/11/22 09:25:31;;;;;;;123.10;42.80;;;;;;;1.77;85.33;99309.35;99660;1305;138463;-66
2022/11/22 09:28:02;;;;;;;109.10;42.40;;;;;;;1.83;84.89;99314.27;99601;1306;98596;-66
2022/11/22 09:30:30;;;;;;;109.20;40.60;;;;;;;1.85;84.77;99314.08;99676;1301;107983;-66
2022/11/22 09:32:58;;;;;;;113.40;40.90;;;;;;;1.86;84.69;99309.80;99504;1299;137644;-66
2022/11/22 09:35:25;;;;;;;110.90;43.70;;;;;;;1.87;84.57;99307.88;99627;1305;112309;-66
2022/11/22 09:37:53;;;;;;;114.90;41.80;;;;;;;1.91;84.79;99306.11;99626;1301;137565;-65
2022/11/22 09:40:20;;;;;;;113.40;42.40;;;;;;;1.96;84.70;99308.28;99510;1300;97833;-66
2022/11/22 09:43:04;;;;;;;106.70;39.60;;;;;;;2.02;84.69;99309.76;99591;1300;108712;-66
2022/11/22 09:45:42;;;;;;;106.00;40.20;;;;;;;2.08;84.46;99305.38;99581;1292;98039;-66
2022/11/22 09:48:21;;;;;;;109.70;41.30;;;;;;;2.15;84.59;99306.33;99721;1299;110903;-66
2022/11/22 09:50:58;;;;;;;103.20;40.60;;;;;;;2.24;84.39;99309.98;99577;1304;138457;-67
2022/11/22 09:53:26;;;;;;;;;;;;;;;2.28;83.89;99314.20;99550;1292;97725;-66
2022/11/22 09:55:57;;;;;;;99.30;39.60;;;;;;;2.28;83.66;99310.95;98676;1299;1003532;-66
2022/11/22 09:58:32;;;;;;;102.00;38.40;;;;;;;2.28;83.40;99304.09;99393;1296;97856;-66
2022/11/22 10:01:08;;;;;;;96.90;39.50;;;;;;;2.27;83.50;99296.89;99311;1299;137675;-66
2022/11/22 10:03:45;;;;;;;103.30;38.10;;;;;;;2.29;83.33;99301.16;100121;1299;108896;-66
2022/11/22 10:06:19;;;;;;;99.60;40.00;;;;;;;2.28;83.19;99304.43;99516;1297;97831;-66
2022/11/22 10:08:56;;;;;;;103.10;40.60;;;;;;;2.26;83.01;99311.15;99227;1298;138964;-66
2022/11/22 10:11:34;;;;;;;103.40;39.50;;;;;;;2.25;82.80;99304.48;99290;1300;97807;-65
2022/11/22 10:14:06;;;;;;;107.10;39.80;;;;;;;2.26;82.91;99301.20;99446;1292;138265;-65
2022/11/22 10:16:42;;;;;;;105.60;41.50;;;;;;;2.27;82.88;99302.03;99950;1293;107271;-65
2022/11/22 10:19:15;;;;;;;95.30;38.00;;;;;;;2.28;82.67;99299.29;99485;1305;138442;-65
2022/11/22 10:21:45;;;;;;;93.40;38.90;;;;;;;2.30;82.93;99298.38;99679;1298;106978;-65
2022/11/22 10:24:18;;;;;;;101.50;39.90;;;;;;;2.38;82.91;99307.73;99622;1303;97873;-65
2022/11/22 10:26:46;;;;;;;95.40;38.10;;;;;;;2.38;82.60;99308.06;99470;1298;138134;-65
2022/11/22 10:29:27;;;;;;;101.40;39.50;;;;;;;2.43;82.56;99301.65;99583;1296;108705;-66
2022/11/22 10:32:04;;;;;;;94.90;39.70;;;;;;;2.50;82.48;99293.66;99666;1301;138562;-66
2022/11/22 10:34:49;;;;;;;98.40;40.30;;;;;;;2.55;82.45;99294.80;99765;1299;107573;-65
2022/11/22 10:37:25;;;;;;;93.80;39.00;;;;;;;2.62;81.96;99301.71;99507;1301;138871;-66
2022/11/22 10:40:02;;;;;;;99.10;40.70;;;;;;;2.63;81.93;99308.05;99882;1296;111162;-66
2022/11/22 10:42:57;;;;;;;89.40;37.70;;;;;;;2.63;81.76;99311.30;99895;1304;107137;-66
2022/11/22 10:45:31;;;;;;;89.40;36.90;;;;;;;2.63;81.52;99312.33;99674;1307;97910;-66
2022/11/22 10:48:10;;;;;;;87.30;37.20;;;;;;;2.63;81.25;99320.05;99590;1301;108220;-66
2022/11/22 10:50:49;;;;;;;85.60;36.40;;;;;;;2.62;81.18;99329.34;99488;1304;138337;-66
2022/11/22 10:53:24;;;;;;;83.30;35.70;;;;;;;2.62;81.45;99330.88;99583;1299;112030;-66
2022/11/22 10:55:59;;;;;;;80.00;35.00;;;;;;;2.67;81.42;99332.17;99889;1306;138236;-66
2022/11/22 10:58:38;;;;;;;78.20;34.70;;;;;;;2.74;81.30;99342.90;99608;1303;97966;-65
2022/11/22 11:01:15;;;;;;;77.60;34.00;;;;;;;2.78;80.92;99340.95;99538;1305;138060;-66
2022/11/22 11:03:48;;;;;;;71.00;31.50;;;;;;;2.82;80.94;99339.34;99605;1301;97820;-66
2022/11/22 11:06:21;;;;;;;68.40;31.80;;;;;;;2.87;80.58;99328.98;99562;1303;112029;-66
2022/11/22 11:09:15;;;;;;;67.60;30.20;;;;;;;2.92;80.24;99322.02;99456;1305;138112;-65
2022/11/22 11:12:09;;;;;;;76.60;32.50;;;;;;;3.00;80.29;99314.48;99674;1295;98446;-65
2022/11/22 11:14:41;;;;;;;72.20;33.10;;;;;;;3.06;80.05;99307.90;99538;1299;139367;-65
2022/11/22 11:17:13;;;;;;;76.40;33.90;;;;;;;3.07;79.42;99305.13;99683;1298;97842;-66
2022/11/22 11:19:45;;;;;;;73.40;32.80;;;;;;;3.07;79.55;99304.97;99510;1303;137272;-64
2022/11/22 11:22:20;;;;;;;69.00;32.50;;;;;;;3.06;79.22;99310.30;99504;1298;107806;-64
2022/11/22 11:25:29;;;;;;;68.40;31.60;;;;;;;3.05;79.05;99319.91;99489;1298;139261;-64
2022/11/22 11:27:59;;;;;;;64.30;29.10;;;;;;;3.02;79.03;99309.48;100781;1306;107518;-65
2022/11/22 11:30:27;;;;;;;69.70;30.70;;;;;;;2.98;78.37;99313.15;100828;1306;95704;-65
2022/11/22 11:32:56;;;;;;;61.30;30.00;;;;;;;2.92;78.14;99309.14;100720;1305;138302;-66
2022/11/22 11:35:26;;;;;;;63.30;30.00;;;;;;;2.86;78.37;99307.34;100770;1285;107011;-64
2022/11/22 11:37:54;;;;;;;64.10;30.20;;;;;;;2.83;78.24;99312.53;100701;1300;138307;-65
2022/11/22 11:40:32;;;;;;;61.80;29.50;;;;;;;2.81;78.26;99310.00;100799;1304;108431;-65
2022/11/22 11:43:19;;;;;;;64.50;29.60;;;;;;;2.80;78.44;99309.67;100504;1307;96915;-66
2022/11/22 11:45:47;;;;;;;63.90;30.10;;;;;;;2.80;78.14;99310.02;99666;1297;112190;-64